Airfield :
LOGIN :

Register | Disclaimer

   EN    FR    IT 

 










Legend :    VFR   Marginal VFR   IFR   Intensive IFR   Very Intensive IFR
Visi :
Ceiling :
>= 8 km
>= 3000ft
5 to 8 km
1000 to 3000 ft
1500m to 5 km
500 to 1000 ft
800 to 1500m
200 to 500 ft
< 800m
< 200 ft
Symbols :   Thunderstorms  Fog  Heavy snow  Heavy precipitations  Wind > 20 kt
SIGMETs :     Misc.  Thunderstorms  Icing  Turbulence  Mountain Waves  Volcanic Ashes






- Airport Elevation : 399 ft
- IATA code : KIV


LUKK - Chisinau Int.

CURRENT METAR :
  • 011400Z 36012KT 9999 -SN OVC016 01/M01 Q1024 R08/110095 NOSIG

EXPIRED METARs :
  • 011330Z 01012KT 9999 -SN OVC016 01/M01 Q1023 R08/110095 NOSIG
  • 011300Z 01011KT 9999 -SN OVC015 01/M01 Q1023 R08/110095 NOSIG
  • 011230Z 01011KT 9999 -SN OVC014 01/M01 Q1023 R08/110095 NOSIG
  • 011200Z 01011KT 9999 -SN OVC015 01/M02 Q1023 R08/110095 NOSIG
  • 011130Z 01011KT 9999 -SN OVC015 01/M02 Q1024 R08/110095 NOSIG

TAF TAF LUKK
Valid from the 01 at 12:00 until the 02 at 12:00 UTC


011124Z 0112/0212 36009KT 9999 OVC012
TEMPO 0112/0203 4100 SN OVC008
TEMPO 0203/0210 OVC006



MET'MAP, your aeronautical weather chart ! - Copyright ORBIFLY December 2007 - Disclaimer

ORBIFLY MET'MAP TEAM :

Programming & Development : Alexandra Zaïnal
Concept & original design : Baudouin d'Aumeries
Assistance for programming : Marc-Olivier Méhu
Technical & hardware support : Manuel Goepfert

Contact : metmap@orbifly.com




SOURCES & CREDITS :

   NOAA